Time;durP1;ratioP1;P1;durP2;ratioP2;P2;SDS_P1;SDS_P2;PMS_P1;PMS_P2;Temp;Humidity;BMP_temperature;BMP_pressure;BME280_temperature;BME280_humidity;BME280_pressure;Samples;Min_cycle;Max_cycle;Signal;HPM_P1;HPM_P2
2022/05/31 00:00:26;;;;;;;;;;;;;;;10.14;56.88;96489.19;30001;983;1885;-62
2022/05/31 00:01:00;;;;;;;;;;;;;;;10.14;56.66;96481.06;30001;983;1881;-61
2022/05/31 00:01:31;;;;;;;;;;;;;;;10.15;57.39;96493.50;30001;983;1886;-62
2022/05/31 00:02:02;;;;;;;;;;;;;;;10.14;56.63;96483.75;30001;983;1868;-61
2022/05/31 00:02:33;;;;;;;;;;;;;;;10.13;56.72;96484.88;30001;983;1864;-62
2022/05/31 00:03:06;;;;;;;;;;;;;;;10.13;56.70;96484.88;30001;982;1881;-63
2022/05/31 00:03:37;;;;;;;;;;;;;;;10.15;57.18;96479.94;30001;982;1886;-62
2022/05/31 00:04:07;;;;;;;;;;;;;;;10.13;56.95;96479.44;30001;982;1882;-61
2022/05/31 00:04:38;;;;;;;;;;;;;;;10.13;56.99;96482.16;30001;982;1886;-61
2022/05/31 00:05:10;;;;;;;;;;;;;;;10.12;56.85;96483.25;30001;970;1902;-62
2022/05/31 00:05:40;;;;;;;;;;;;;;;10.12;57.12;96477.84;30001;983;1885;-62
2022/05/31 00:06:11;;;;;;;;;;;;;;;10.11;57.57;96484.34;30001;983;1881;-62
2022/05/31 00:06:42;;;;;;;;;;;;;;;10.09;57.37;96484.66;30001;983;1885;-63
2022/05/31 00:07:15;;;;;;;;;;;;;;;10.08;57.00;96483.03;30001;983;1868;-63
2022/05/31 00:07:47;;;;;;;;;;;;;;;10.08;56.87;96485.75;30001;983;1877;-61
2022/05/31 00:08:18;;;;;;;;;;;;;;;10.07;57.08;96479.53;30001;983;1881;-61
2022/05/31 00:08:49;;;;;;;;;;;;;;;10.06;58.05;96486.06;30001;983;1886;-62
2022/05/31 00:09:20;;;;;;;;;;;;;;;10.04;57.01;96482.06;30001;983;1881;-61
2022/05/31 00:09:51;;;;;;;;;;;;;;;10.04;57.23;96477.44;30001;983;1886;-61
2022/05/31 00:10:22;;;;;;;;;;;;;;;10.04;57.29;96485.56;30001;983;1881;-62
2022/05/31 00:10:53;;;;;;;;;;;;;;;10.03;57.14;96486.69;30001;982;1873;-63
2022/05/31 00:11:24;;;;;;;;;;;;;;;10.02;57.08;96479.66;30001;982;1873;-63
2022/05/31 00:11:58;;;;;;;;;;;;;;;10.02;56.92;96485.06;30001;982;1886;-61
2022/05/31 00:12:32;;;;;;;;;;;;;;;10.01;56.84;96482.66;30001;982;1869;-62
2022/05/31 00:13:04;;;;;;;;;;;;;;;10.00;58.15;96487.28;30001;983;1877;-62
2022/05/31 00:13:35;;;;;;;;;;;;;;;9.99;57.40;96488.37;30001;983;1881;-62
2022/05/31 00:14:06;;;;;;;;;;;;;;;9.99;57.46;96488.37;30001;983;1885;-63
2022/05/31 00:14:37;;;;;;;;;;;;;;;9.99;57.47;96485.66;30001;983;1881;-61
2022/05/31 00:15:08;;;;;;;;;;;;;;;10.00;57.22;96487.28;30001;983;1885;-62
2022/05/31 00:15:39;;;;;;;;;;;;;;;9.97;58.59;96482.44;30001;983;1881;-62
2022/05/31 00:16:10;;;;;;;;;;;;;;;9.96;57.50;96486.25;30001;983;1872;-62
2022/05/31 00:16:42;;;;;;;;;;;;;;;9.95;57.98;96484.66;30001;983;1873;-60
2022/05/31 00:17:13;;;;;;;;;;;;;;;9.95;57.46;96476.53;30001;983;1886;-62
2022/05/31 00:17:44;;;;;;;;;;;;;;;9.94;57.81;96477.63;30001;983;1881;-63
2022/05/31 00:18:14;;;;;;;;;;;;;;;9.92;58.08;96479.03;30001;982;1886;-63
2022/05/31 00:18:45;;;;;;;;;;;;;;;9.91;57.72;96475.50;30001;982;1881;-62
2022/05/31 00:19:17;;;;;;;;;;;;;;;9.91;57.69;96482.84;30001;982;1886;-62
2022/05/31 00:19:47;;;;;;;;;;;;;;;9.91;57.61;96478.22;30001;982;1882;-54
2022/05/31 00:20:22;;;;;;;;;;;;;;;9.90;58.08;96482.03;30001;982;1873;-61
2022/05/31 00:20:56;;;;;;;;;;;;;;;9.90;57.82;96478.50;30001;983;1872;-61
2022/05/31 00:21:39;;;;;;;;;;;;;;;9.88;58.20;96478.81;30001;983;1885;-62
2022/05/31 00:22:23;;;;;;;;;;;;;;;9.86;57.43;96481.00;30001;983;1881;-62
2022/05/31 00:22:55;;;;;;;;;;;;;;;9.87;57.76;96474.50;30001;983;1885;-62
2022/05/31 00:23:26;;;;;;;;;;;;;;;9.87;57.46;96479.91;30001;983;1881;-63
2022/05/31 00:23:58;;;;;;;;;;;;;;;9.87;58.32;96477.19;30001;983;1886;-63
2022/05/31 00:24:30;;;;;;;;;;;;;;;9.85;57.40;96478.59;30001;983;1864;-62
2022/05/31 00:25:02;;;;;;;;;;;;;;;9.85;57.78;96479.41;30001;982;1886;-63
2022/05/31 00:25:35;;;;;;;;;;;;;;;9.86;57.66;96475.59;30001;982;1869;-63
2022/05/31 00:26:08;;;;;;;;;;;;;;;9.84;58.38;96477.78;30001;982;1877;-63
2022/05/31 00:26:41;;;;;;;;;;;;;;;9.81;58.92;96478.38;30001;982;1882;-63
2022/05/31 00:27:14;;;;;;;;;;;;;;;9.78;58.33;96478.97;30001;982;1873;-62
2022/05/31 00:27:45;;;;;;;;;;;;;;;9.79;58.38;96474.38;30001;982;1873;-62
2022/05/31 00:28:16;;;;;;;;;;;;;;;9.78;58.29;96472.75;30001;983;1885;-61
2022/05/31 00:28:48;;;;;;;;;;;;;;;9.77;58.09;96477.38;30001;983;1881;-62
2022/05/31 00:29:19;;;;;;;;;;;;;;;9.77;57.91;96471.94;30001;983;1885;-63
2022/05/31 00:29:51;;;;;;;;;;;;;;;9.77;58.02;96477.38;30001;983;1881;-63
2022/05/31 00:30:25;;;;;;;;;;;;;;;9.77;57.94;96471.94;30001;983;1885;-62
2022/05/31 00:30:56;;;;;;;;;;;;;;;9.77;57.74;96466.53;30001;983;1881;-62
2022/05/31 00:31:27;;;;;;;;;;;;;;;9.78;58.33;96470.84;30001;983;1886;-61
2022/05/31 00:31:59;;;;;;;;;;;;;;;9.75;58.95;96474.16;30001;983;1882;-62
2022/05/31 00:32:32;;;;;;;;;;;;;;;9.71;58.94;96475.84;30001;982;1873;-62
2022/05/31 00:33:02;;;;;;;;;;;;;;;9.70;58.83;96476.97;30001;982;1873;-62
2022/05/31 00:33:36;;;;;;;;;;;;;;;9.69;58.50;96472.66;30001;982;1886;-60
2022/05/31 00:34:08;;;;;;;;;;;;;;;9.69;58.43;96475.38;30001;982;1882;-58
2022/05/31 00:34:41;;;;;;;;;;;;;;;9.69;58.08;96478.88;30001;982;1886;-57
2022/05/31 00:35:18;;;;;;;;;;;;;;;9.69;58.36;96475.38;30001;982;1882;-59
2022/05/31 00:35:49;;;;;;;;;;;;;;;9.72;57.92;96470.13;30001;983;1885;-56
2022/05/31 00:36:20;;;;;;;;;;;;;;;9.73;57.86;96471.75;30001;983;1867;-56
2022/05/31 00:36:51;;;;;;;;;;;;;;;9.73;57.88;96471.75;30001;983;1877;-56
2022/05/31 00:37:22;;;;;;;;;;;;;;;9.72;58.13;96469.31;30001;983;1881;-58
2022/05/31 00:37:54;;;;;;;;;;;;;;;9.71;57.95;96465.81;30001;983;1886;-58
2022/05/31 00:38:25;;;;;;;;;;;;;;;9.70;57.62;96471.56;30001;983;1881;-57
2022/05/31 00:38:56;;;;;;;;;;;;;;;9.69;58.10;96468.03;30001;983;1873;-62
2022/05/31 00:39:27;;;;;;;;;;;;;;;9.70;57.68;96460.72;30001;983;1860;-63
2022/05/31 00:39:58;;;;;;;;;;;;;;;9.70;57.61;96464.22;30001;982;1886;-62
2022/05/31 00:40:30;;;;;;;;;;;;;;;9.72;57.98;96466.63;30001;982;1868;-62
2022/05/31 00:41:23;;;;;;;;;;;;;;;9.71;57.74;96473.13;30001;982;1877;-62
2022/05/31 00:42:02;;;;;;;;;;;;;;;9.70;57.66;96461.50;30001;982;1882;-63
2022/05/31 00:42:46;;;;;;;;;;;;;;;9.71;57.78;96467.72;30001;983;1885;-57
2022/05/31 00:43:23;;;;;;;;;;;;;;;9.70;57.73;96461.50;30001;983;1881;-62
2022/05/31 00:44:00;;;;;;;;;;;;;;;9.70;57.53;96466.91;30001;983;1885;-55
2022/05/31 00:44:32;;;;;;;;;;;;;;;9.70;57.60;96463.44;30001;983;1881;-62
2022/05/31 00:45:03;;;;;;;;;;;;;;;9.70;57.67;96461.50;30001;983;1872;-56
2022/05/31 00:45:48;;;;;;;;;;;;;;;9.69;57.92;96470.75;30002;983;1859;-62
2022/05/31 00:46:22;;;;;;;;;;;;;;;9.69;57.86;96468.03;30002;983;1872;-63
2022/05/31 00:46:57;;;;;;;;;;;;;;;9.70;57.88;96468.84;30002;983;1769;-62
2022/05/31 00:47:31;;;;;;;;;;;;;;;9.70;57.76;96466.91;30002;982;1886;-57
2022/05/31 00:48:03;;;;;;;;;;;;;;;9.70;57.78;96469.63;30002;982;1881;-56
2022/05/31 00:48:36;;;;;;;;;;;;;;;9.72;57.42;96470.13;30002;982;1886;-57
2022/05/31 00:49:08;;;;;;;;;;;;;;;9.73;57.59;96465.50;30002;982;1882;-61
2022/05/31 00:49:42;;;;;;;;;;;;;;;9.74;57.32;96461.72;30002;982;1819;-63
2022/05/31 00:50:18;;;;;;;;;;;;;;;9.72;57.79;96458.50;30002;983;1881;-56
2022/05/31 00:50:54;;;;;;;;;;;;;;;9.70;58.02;96460.72;30002;983;1885;-56
2022/05/31 00:51:41;;;;;;;;;;;;;;;9.68;57.47;96468.34;30002;983;1868;-56
2022/05/31 00:52:15;;;;;;;;;;;;;;;9.66;57.55;96465.13;30002;972;1879;-56
2022/05/31 00:52:48;;;;;;;;;;;;;;;9.65;57.62;96463.50;30002;983;1872;-57
2022/05/31 00:53:23;;;;;;;;;;;;;;;9.65;57.70;96468.94;30002;983;1873;-56
2022/05/31 00:53:56;;;;;;;;;;;;;;;9.66;57.49;96457.81;30002;983;1872;-62
2022/05/31 00:54:30;;;;;;;;;;;;;;;9.68;57.43;96463.72;30002;983;1873;-56
2022/05/31 00:55:25;;;;;;;;;;;;;;;9.69;57.55;96464.53;30002;982;1886;-61
2022/05/31 00:56:04;;;;;;;;;;;;;;;9.69;57.48;96467.25;30002;982;1877;-56
2022/05/31 00:56:35;;;;;;;;;;;;;;;9.66;57.58;96452.38;30002;982;1886;-56
2022/05/31 00:57:10;;;;;;;;;;;;;;;9.68;57.59;96462.91;30002;982;1882;-62
2022/05/31 00:57:45;;;;;;;;;;;;;;;9.69;57.63;96459.13;30002;983;1872;-56
2022/05/31 00:58:19;;;;;;;;;;;;;;;9.68;57.60;96465.63;30002;983;1872;-56
2022/05/31 00:58:56;;;;;;;;;;;;;;;9.68;57.34;96462.91;30002;983;1885;-63
2022/05/31 00:59:32;;;;;;;;;;;;;;;9.68;57.52;96462.91;30002;983;1881;-56
2022/05/31 01:00:05;;;;;;;;;;;;;;;9.66;57.67;96459.72;30002;983;1886;-56
2022/05/31 01:00:37;;;;;;;;;;;;;;;9.67;58.01;96458.59;30002;983;1868;-62
2022/05/31 01:01:10;;;;;;;;;;;;;;;9.68;57.50;96457.50;30002;983;1877;-57
2022/05/31 01:01:42;;;;;;;;;;;;;;;9.68;57.58;96462.91;30002;983;1882;-63
2022/05/31 01:02:17;;;;;;;;;;;;;;;9.68;57.54;96460.22;30002;983;1886;-57
2022/05/31 01:02:49;;;;;;;;;;;;;;;9.67;57.88;96461.31;30002;982;1882;-63
2022/05/31 01:03:22;;;;;;;;;;;;;;;9.68;58.00;96465.63;30002;982;1886;-63
2022/05/31 01:03:54;;;;;;;;;;;;;;;9.66;57.77;96460.50;30002;982;1882;-62
2022/05/31 01:04:33;;;;;;;;;;;;;;;9.66;57.68;96465.13;30002;982;1873;-63
2022/05/31 01:05:04;;;;;;;;;;;;;;;9.65;57.69;96458.09;30002;983;1872;-63
2022/05/31 01:05:36;;;;;;;;;;;;;;;9.62;58.26;96458.69;30002;983;1885;-62
2022/05/31 01:06:07;;;;;;;;;;;;;;;9.63;58.00;96460.28;30002;983;1881;-56
2022/05/31 01:06:38;;;;;;;;;;;;;;;9.62;58.34;96464.91;30002;983;1886;-56
2022/05/31 01:07:09;;;;;;;;;;;;;;;9.62;58.01;96464.09;30002;983;1881;-56
2022/05/31 01:07:43;;;;;;;;;;;;;;;9.61;58.33;96463.28;30002;983;1886;-56
2022/05/31 01:08:14;;;;;;;;;;;;;;;9.60;58.23;96458.19;30002;983;1882;-56
2022/05/31 01:08:46;;;;;;;;;;;;;;;9.59;57.93;96464.69;30002;983;1886;-63
2022/05/31 01:09:17;;;;;;;;;;;;;;;9.59;58.31;96465.50;30002;983;1869;-61
2022/05/31 01:09:48;;;;;;;;;;;;;;;9.58;58.03;96473.91;30002;983;1877;-57
2022/05/31 01:10:19;;;;;;;;;;;;;;;9.58;58.36;96471.22;30002;982;1882;-63
2022/05/31 01:10:51;;;;;;;;;;;;;;;9.57;58.22;96459.56;30002;982;1873;-63
2022/05/31 01:11:23;;;;;;;;;;;;;;;9.59;58.53;96470.13;30002;982;1873;-62
2022/05/31 01:11:56;;;;;;;;;;;;;;;9.58;58.14;96461.19;30002;982;1873;-62
2022/05/31 01:12:28;;;;;;;;;;;;;;;9.60;58.71;96460.88;30002;982;1873;-62
2022/05/31 01:13:00;;;;;;;;;;;;;;;9.61;58.62;96465.22;30002;983;1885;-63
2022/05/31 01:13:35;;;;;;;;;;;;;;;9.63;58.28;96461.09;30002;983;1881;-63
2022/05/31 01:14:06;;;;;;;;;;;;;;;9.64;58.35;96467.31;30002;983;1885;-62
2022/05/31 01:14:38;;;;;;;;;;;;;;;9.63;58.33;96468.41;30002;983;1881;-62
2022/05/31 01:15:12;;;;;;;;;;;;;;;9.62;58.32;96466.81;30002;983;1886;-63
2022/05/31 01:15:45;;;;;;;;;;;;;;;9.61;58.40;96478.75;30002;987;1868;-63
2022/05/31 01:16:16;;;;;;;;;;;;;;;9.61;58.70;96470.63;30002;983;1877;-63
2022/05/31 01:16:57;;;;;;;;;;;;;;;9.62;58.50;96464.09;30002;982;1882;-56
2022/05/31 01:17:28;;;;;;;;;;;;;;;9.61;58.65;96473.31;30002;982;1886;-63
2022/05/31 01:17:59;;;;;;;;;;;;;;;9.61;58.76;96473.31;30002;982;1882;-63
2022/05/31 01:18:31;;;;;;;;;;;;;;;9.61;58.76;96473.31;30002;987;1886;-63
2022/05/31 01:19:02;;;;;;;;;;;;;;;9.62;58.66;96480.34;30002;982;1882;-61
2022/05/31 01:20:22;;;;;;;;;;;;;;;9.60;58.52;96471.72;30002;983;1881;-63
2022/05/31 01:20:53;;;;;;;;;;;;;;;9.60;58.59;96479.84;30002;983;1872;-61
2022/05/31 01:21:24;;;;;;;;;;;;;;;9.59;58.62;96479.03;30002;983;1872;-55
2022/05/31 01:21:55;;;;;;;;;;;;;;;9.58;58.85;96474.72;30002;983;1886;-63
2022/05/31 01:22:45;;;;;;;;;;;;;;;9.59;59.04;96475.53;30002;983;1882;-61
2022/05/31 01:23:17;;;;;;;;;;;;;;;9.58;58.94;96468.50;30002;983;1881;-61
2022/05/31 01:24:04;;;;;;;;;;;;;;;9.58;58.88;96473.91;30002;983;1881;-64
2022/05/31 01:24:44;;;;;;;;;;;;;;;9.55;58.96;96474.50;30002;982;1886;-62
2022/05/31 01:25:31;;;;;;;;;;;;;;;9.55;59.12;96477.22;30002;982;1882;-61
2022/05/31 01:26:21;;;;;;;;;;;;;;;9.55;59.15;96475.31;30002;982;1873;-63
2022/05/31 01:26:58;;;;;;;;;;;;;;;9.54;58.94;96479.13;30002;982;1873;-55
2022/05/31 01:27:46;;;;;;;;;;;;;;;9.54;59.13;96475.59;30002;982;1873;-63
2022/05/31 01:28:37;;;;;;;;;;;;;;;9.53;59.43;96479.41;30002;983;1859;-62
2022/05/31 01:29:12;;;;;;;;;;;;;;;9.51;59.28;96479.72;30002;983;1881;-62
2022/05/31 01:29:44;;;;;;;;;;;;;;;9.52;59.30;96477.81;30002;983;1868;-62
2022/05/31 01:30:16;;;;;;;;;;;;;;;9.50;59.52;96477.28;30002;983;1877;-62
2022/05/31 01:30:54;;;;;;;;;;;;;;;9.52;59.41;96477.81;30002;983;1881;-62
2022/05/31 01:31:30;;;;;;;;;;;;;;;9.53;59.30;96476.72;30002;983;1886;-62
2022/05/31 01:32:02;;;;;;;;;;;;;;;9.53;59.21;96479.41;30002;982;1882;-63
2022/05/31 01:32:37;;;;;;;;;;;;;;;9.52;59.14;96467.78;30002;982;1886;-61
2022/05/31 01:33:16;;;;;;;;;;;;;;;9.53;59.34;96471.28;30002;982;1882;-62
2022/05/31 01:34:23;;;;;;;;;;;;;;;9.53;59.21;96471.28;30002;982;1886;-64
2022/05/31 01:34:57;;;;;;;;;;;;;;;9.53;59.63;96472.09;30002;982;1864;-63
2022/05/31 01:35:30;;;;;;;;;;;;;;;9.52;59.60;96456.94;30002;983;1877;-62
2022/05/31 01:36:05;;;;;;;;;;;;;;;9.53;59.47;96471.28;30002;983;1881;-62
2022/05/31 01:36:50;;;;;;;;;;;;;;;9.52;59.25;96470.50;30001;958;1911;-62
2022/05/31 01:37:26;;;;;;;;;;;;;;;9.52;59.45;96475.09;30001;983;1881;-62
2022/05/31 01:38:20;;;;;;;;;;;;;;;9.51;59.88;96473.50;30001;983;1886;-62
2022/05/31 01:38:56;;;;;;;;;;;;;;;9.51;59.92;96465.37;30002;983;1877;-63
2022/05/31 01:39:47;;;;;;;;;;;;;;;9.49;60.10;96464.84;30001;982;1886;-62
2022/05/31 01:40:46;;;;;;;;;;;;;;;9.48;60.26;96461.34;30001;982;1864;-64
2022/05/31 01:41:29;;;;;;;;;;;;;;;9.49;59.92;96464.84;30002;982;1873;-63
2022/05/31 01:42:07;;;;;;;;;;;;;;;9.50;59.92;96471.87;30001;982;1869;-62
2022/05/31 01:42:42;;;;;;;;;;;;;;;9.48;60.12;96460.53;30001;982;1878;-63
2022/05/31 01:43:13;;;;;;;;;;;;;;;9.47;59.86;96467.06;30001;983;1881;-62
2022/05/31 01:43:46;;;;;;;;;;;;;;;9.47;60.12;96461.62;30001;983;1886;-63
2022/05/31 01:44:17;;;;;;;;;;;;;;;9.47;60.11;96461.62;30001;983;1882;-63
2022/05/31 01:44:51;;;;;;;;;;;;;;;9.45;59.99;96461.94;30001;983;1886;-62
2022/05/31 01:45:26;;;;;;;;;;;;;;;9.46;60.04;96454.59;30001;983;1881;-63
2022/05/31 01:46:01;;;;;;;;;;;;;;;9.46;59.98;96455.41;30001;983;1885;-62
2022/05/31 01:46:33;;;;;;;;;;;;;;;9.46;60.08;96460.03;30002;983;1845;-62
2022/05/31 01:47:04;;;;;;;;;;;;;;;9.46;59.68;96455.41;30001;982;1873;-63
2022/05/31 01:47:36;;;;;;;;;;;;;;;9.47;59.52;96456.22;30001;982;1873;-62
2022/05/31 01:48:08;;;;;;;;;;;;;;;9.45;59.88;96455.72;30001;982;1886;-63
2022/05/31 01:48:40;;;;;;;;;;;;;;;9.48;60.02;96457.81;30001;982;1869;-62
2022/05/31 01:49:13;;;;;;;;;;;;;;;9.47;59.97;96453.50;30001;982;1878;-62
2022/05/31 01:49:48;;;;;;;;;;;;;;;9.47;59.83;96461.62;30001;983;1868;-63
2022/05/31 01:50:20;;;;;;;;;;;;;;;9.47;59.88;96464.34;30001;983;1877;-62
2022/05/31 01:50:51;;;;;;;;;;;;;;;9.46;59.72;96460.03;30001;983;1881;-63
2022/05/31 01:51:22;;;;;;;;;;;;;;;9.46;59.73;96455.41;30001;983;1886;-61
2022/05/31 01:51:54;;;;;;;;;;;;;;;9.47;59.60;96462.44;30001;983;1881;-62
2022/05/31 01:52:25;;;;;;;;;;;;;;;9.47;59.81;96459.72;30001;983;1886;-64
2022/05/31 01:52:56;;;;;;;;;;;;;;;9.49;59.80;96464.84;30001;983;1882;-65
2022/05/31 01:53:27;;;;;;;;;;;;;;;9.48;59.41;96460.53;30001;983;1886;-64
2022/05/31 01:53:59;;;;;;;;;;;;;;;9.48;59.63;96457.81;30001;983;1882;-63
2022/05/31 01:54:30;;;;;;;;;;;;;;;9.48;59.33;96457.81;30001;982;1873;-64
2022/05/31 01:55:06;;;;;;;;;;;;;;;9.48;59.28;96457.81;30001;982;1873;-63
2022/05/31 01:55:40;;;;;;;;;;;;;;;9.49;59.28;96464.84;30001;982;1873;-63
2022/05/31 01:56:11;;;;;;;;;;;;;;;9.49;59.35;96464.84;30001;982;1860;-61
2022/05/31 01:56:43;;;;;;;;;;;;;;;9.48;59.37;96463.25;30001;982;1887;-64
2022/05/31 01:57:16;;;;;;;;;;;;;;;9.50;59.29;96466.47;30001;983;1868;-64
2022/05/31 01:57:49;;;;;;;;;;;;;;;9.50;59.42;96461.03;30001;983;1877;-64
2022/05/31 01:58:23;;;;;;;;;;;;;;;9.49;58.96;96457.53;30001;983;1881;-65
2022/05/31 01:58:55;;;;;;;;;;;;;;;9.50;59.28;96466.47;30001;983;1886;-65
2022/05/31 01:59:29;;;;;;;;;;;;;;;9.51;59.04;96459.94;30001;983;1881;-64
2022/05/31 02:00:04;;;;;;;;;;;;;;;9.49;59.29;96460.25;30001;983;1886;-63
2022/05/31 02:00:35;;;;;;;;;;;;;;;9.47;59.55;96467.06;30001;983;1882;-63
2022/05/31 02:01:06;;;;;;;;;;;;;;;9.45;59.54;96463.84;30001;983;1886;-63
2022/05/31 02:01:39;;;;;;;;;;;;;;;9.43;59.87;96456.00;30001;983;1881;-62
2022/05/31 02:02:15;;;;;;;;;;;;;;;9.43;59.84;96466.03;30001;982;1886;-63
2022/05/31 02:02:48;;;;;;;;;;;;;;;9.39;61.13;96461.22;30001;982;1868;-63
2022/05/31 02:03:20;;;;;;;;;;;;;;;9.36;60.49;96459.09;30001;982;1877;-63
2022/05/31 02:03:51;;;;;;;;;;;;;;;9.34;60.08;96455.91;30001;982;1882;-63
2022/05/31 02:04:22;;;;;;;;;;;;;;;9.35;60.04;96454.81;30001;982;1886;-63
2022/05/31 02:04:53;;;;;;;;;;;;;;;9.35;61.50;96459.41;30001;983;1881;-62
2022/05/31 02:05:24;;;;;;;;;;;;;;;9.33;61.92;96465.13;30001;983;1885;-63
2022/05/31 02:05:55;;;;;;;;;;;;;;;9.32;60.85;96458.09;30001;983;1881;-63
2022/05/31 02:06:28;;;;;;;;;;;;;;;9.31;61.20;96459.19;30001;983;1872;-63
2022/05/31 02:07:27;;;;;;;;;;;;;;;9.32;61.89;96466.22;30001;983;1872;-63
2022/05/31 02:08:00;;;;;;;;;;;;;;;9.29;60.92;96461.38;30001;983;1881;-63
2022/05/31 02:08:31;;;;;;;;;;;;;;;9.31;60.65;96458.38;30001;983;1881;-64
2022/05/31 02:09:03;;;;;;;;;;;;;;;9.31;60.78;96459.19;30001;983;1886;-63
2022/05/31 02:09:34;;;;;;;;;;;;;;;9.33;60.22;96456.19;30001;983;1882;-62
2022/05/31 02:10:05;;;;;;;;;;;;;;;9.33;60.33;96448.87;30001;982;1872;-62
2022/05/31 02:10:38;;;;;;;;;;;;;;;9.34;59.91;96458.59;30001;982;1873;-60
2022/05/31 02:11:09;;;;;;;;;;;;;;;9.35;60.11;96454.00;30001;982;1886;-63
2022/05/31 02:11:40;;;;;;;;;;;;;;;9.35;59.88;96452.09;30001;982;1882;-63
2022/05/31 02:12:12;;;;;;;;;;;;;;;9.36;59.96;96450.97;30001;983;1886;-63
2022/05/31 02:12:43;;;;;;;;;;;;;;;9.37;59.80;96462.59;30001;983;1881;-62
2022/05/31 02:13:14;;;;;;;;;;;;;;;9.38;59.36;96459.59;30001;983;1885;-63
2022/05/31 02:13:45;;;;;;;;;;;;;;;9.39;59.45;96452.28;30001;983;1881;-62
2022/05/31 02:14:16;;;;;;;;;;;;;;;9.38;59.49;96448.75;30001;962;1906;-62
2022/05/31 02:14:50;;;;;;;;;;;;;;;9.38;59.30;96456.87;30001;983;1881;-63
2022/05/31 02:15:22;;;;;;;;;;;;;;;9.37;59.25;96451.78;30001;983;1873;-62
2022/05/31 02:15:54;;;;;;;;;;;;;;;9.35;59.40;96449.37;30001;983;1872;-62
2022/05/31 02:16:25;;;;;;;;;;;;;;;9.38;59.29;96458.78;30001;983;1886;-62
2022/05/31 02:16:56;;;;;;;;;;;;;;;9.38;59.17;96446.06;30001;983;1881;-62
2022/05/31 02:17:27;;;;;;;;;;;;;;;9.37;59.86;96452.56;30001;982;1886;-63
2022/05/31 02:17:58;;;;;;;;;;;;;;;9.31;60.43;96448.34;30001;982;1882;-63
2022/05/31 02:19:15;;;;;;;;;;;;;;;9.29;60.37;96453.25;30001;982;1886;-63
2022/05/31 02:19:28;;;;;;;;;;;;;;;9.29;59.73;96453.25;30001;982;1881;-64
2022/05/31 02:19:59;;;;;;;;;;;;;;;9.29;59.75;96449.75;30001;983;1885;-64
2022/05/31 02:20:30;;;;;;;;;;;;;;;9.31;59.95;96452.97;30001;983;1867;-63
2022/05/31 02:21:01;;;;;;;;;;;;;;;9.31;59.89;96452.97;30001;983;1863;-63
2022/05/31 02:21:35;;;;;;;;;;;;;;;9.30;60.14;96454.88;30001;983;1881;-62
2022/05/31 02:22:07;;;;;;;;;;;;;;;9.27;60.71;96452.75;30001;983;1885;-62
2022/05/31 02:22:38;;;;;;;;;;;;;;;9.26;59.91;96453.06;30001;983;1881;-62
2022/05/31 02:23:09;;;;;;;;;;;;;;;9.25;59.98;96444.13;30001;983;1885;-63
2022/05/31 02:23:40;;;;;;;;;;;;;;;9.27;59.85;96455.47;30001;983;1855;-62
2022/05/31 02:24:13;;;;;;;;;;;;;;;9.28;59.91;96454.38;30001;982;1873;-63
2022/05/31 02:24:45;;;;;;;;;;;;;;;9.30;59.93;96459.47;30001;982;1859;-62
2022/05/31 02:25:17;;;;;;;;;;;;;;;9.29;59.97;96450.56;30001;982;1886;-64
2022/05/31 02:25:48;;;;;;;;;;;;;;;9.29;59.73;96453.25;30001;982;1882;-64
2022/05/31 02:26:19;;;;;;;;;;;;;;;9.30;59.92;96451.38;30001;982;1886;-62
2022/05/31 02:26:50;;;;;;;;;;;;;;;9.30;59.71;96456.78;30001;982;1882;-63
2022/05/31 02:27:21;;;;;;;;;;;;;;;9.29;59.71;96455.16;30001;983;1885;-63
2022/05/31 02:27:52;;;;;;;;;;;;;;;9.27;59.70;96451.94;30001;983;1881;-63
2022/05/31 02:28:23;;;;;;;;;;;;;;;9.25;59.81;96454.94;30001;983;1872;-63
2022/05/31 02:28:57;;;;;;;;;;;;;;;9.22;61.09;96460.94;30001;983;1873;-62
2022/05/31 02:29:29;;;;;;;;;;;;;;;9.15;61.83;96463.22;30001;983;1885;-62
2022/05/31 02:30:01;;;;;;;;;;;;;;;9.11;61.37;96462.19;30001;983;1881;-64
2022/05/31 02:30:31;;;;;;;;;;;;;;;9.10;61.22;96462.50;30001;983;1886;-64
2022/05/31 02:31:02;;;;;;;;;;;;;;;9.11;60.91;96459.50;30001;983;1881;-63
2022/05/31 02:31:35;;;;;;;;;;;;;;;9.10;61.05;96457.87;30001;982;1873;-63
2022/05/31 02:32:07;;;;;;;;;;;;;;;9.10;60.57;96463.28;30001;982;1873;-63
2022/05/31 02:32:38;;;;;;;;;;;;;;;9.09;60.72;96456.28;30001;982;1886;-62
2022/05/31 02:33:09;;;;;;;;;;;;;;;9.08;60.91;96465.47;30001;982;1882;-62
2022/05/31 02:33:40;;;;;;;;;;;;;;;9.07;60.91;96463.87;30001;982;1873;-55
2022/05/31 02:34:12;;;;;;;;;;;;;;;9.08;60.60;96460.06;30001;982;1873;-63
2022/05/31 02:34:44;;;;;;;;;;;;;;;9.06;61.00;96462.25;30001;982;1886;-63
2022/05/31 02:35:15;;;;;;;;;;;;;;;9.06;60.59;96457.66;30001;983;1881;-63
2022/05/31 02:35:46;;;;;;;;;;;;;;;9.05;60.70;96457.94;30001;983;1885;-65
2022/05/31 02:36:18;;;;;;;;;;;;;;;9.05;60.49;96461.47;30001;983;1868;-63
2022/05/31 02:36:49;;;;;;;;;;;;;;;9.06;60.83;96456.84;30001;983;1864;-63
2022/05/31 02:37:21;;;;;;;;;;;;;;;9.07;60.58;96458.47;30001;983;1881;-64
2022/05/31 02:37:55;;;;;;;;;;;;;;;9.07;60.46;96458.47;30001;983;1886;-63
2022/05/31 02:38:31;;;;;;;;;;;;;;;9.07;60.31;96453.06;30001;983;1882;-63
2022/05/31 02:39:04;;;;;;;;;;;;;;;9.08;60.16;96455.47;30001;982;1885;-56
2022/05/31 02:39:35;;;;;;;;;;;;;;;9.07;60.32;96450.34;30001;982;1881;-63
2022/05/31 02:40:06;;;;;;;;;;;;;;;9.08;60.20;96454.66;30001;982;1886;-63
2022/05/31 02:40:37;;;;;;;;;;;;;;;9.08;60.30;96450.06;30001;982;1881;-64
2022/05/31 02:41:08;;;;;;;;;;;;;;;9.08;60.42;96449.25;30001;982;1886;-64
2022/05/31 02:41:39;;;;;;;;;;;;;;;9.07;60.40;96447.63;30001;973;1884;-63
2022/05/31 02:42:11;;;;;;;;;;;;;;;9.08;60.26;96449.25;30001;964;1882;-62
2022/05/31 02:42:42;;;;;;;;;;;;;;;9.08;60.48;96449.25;30001;983;1881;-64
2022/05/31 02:43:13;;;;;;;;;;;;;;;9.08;60.48;96449.25;30001;983;1886;-63
2022/05/31 02:43:44;;;;;;;;;;;;;;;9.08;60.36;96454.66;30001;983;1881;-62
2022/05/31 02:44:15;;;;;;;;;;;;;;;9.08;60.29;96460.88;30001;983;1872;-62
2022/05/31 02:44:46;;;;;;;;;;;;;;;9.07;61.09;96458.47;30001;983;1873;-64
2022/05/31 02:45:17;;;;;;;;;;;;;;;9.05;61.35;96449.84;30001;983;1886;-63
2022/05/31 02:45:48;;;;;;;;;;;;;;;9.03;60.81;96452.81;30001;983;1882;-63
2022/05/31 02:46:18;;;;;;;;;;;;;;;9.03;61.02;96452.03;30001;983;1886;-63
2022/05/31 02:46:49;;;;;;;;;;;;;;;9.02;61.08;96445.81;30001;982;1868;-63
2022/05/31 02:47:21;;;;;;;;;;;;;;;9.01;61.03;96451.50;30001;982;1877;-62
2022/05/31 02:47:52;;;;;;;;;;;;;;;9.01;60.85;96460.44;30001;972;1887;-62
2022/05/31 02:48:22;;;;;;;;;;;;;;;8.99;61.44;96456.44;30001;982;1877;-63
2022/05/31 02:48:53;;;;;;;;;;;;;;;8.99;61.06;96454.53;30001;982;1881;-63
2022/05/31 02:49:25;;;;;;;;;;;;;;;8.97;61.72;96455.94;30001;982;1886;-64
2022/05/31 02:49:55;;;;;;;;;;;;;;;8.96;61.17;96462.44;30001;983;1881;-63
2022/05/31 02:50:26;;;;;;;;;;;;;;;8.96;61.76;96457.81;30001;983;1885;-64
2022/05/31 02:50:57;;;;;;;;;;;;;;;8.99;61.69;96461.84;30001;983;1881;-63
2022/05/31 02:51:28;;;;;;;;;;;;;;;8.99;61.57;96468.06;30001;983;1791;-63
2022/05/31 02:51:59;;;;;;;;;;;;;;;9.00;61.84;96460.75;30001;965;1909;-64
2022/05/31 02:52:31;;;;;;;;;;;;;;;8.99;62.08;96467.25;30001;983;1886;-64
2022/05/31 02:53:02;;;;;;;;;;;;;;;8.99;62.43;96467.25;30001;983;1868;-63
2022/05/31 02:53:33;;;;;;;;;;;;;;;8.97;61.78;96461.34;30001;983;1864;-63
2022/05/31 02:54:05;;;;;;;;;;;;;;;8.96;61.88;96468.66;30001;982;1882;-62
2022/05/31 02:54:36;;;;;;;;;;;;;;;8.96;61.96;96467.84;30001;982;1886;-64
2022/05/31 02:55:07;;;;;;;;;;;;;;;8.95;61.86;96467.03;30001;982;1868;-64
2022/05/31 02:55:38;;;;;;;;;;;;;;;8.94;63.02;96475.44;30001;982;1877;-62
2022/05/31 02:56:09;;;;;;;;;;;;;;;8.92;63.58;96477.66;30001;982;1882;-63
2022/05/31 02:56:40;;;;;;;;;;;;;;;8.88;63.88;96472.00;30001;983;1885;-61
2022/05/31 02:57:11;;;;;;;;;;;;;;;8.86;63.73;96474.19;30001;983;1881;-64
2022/05/31 02:57:42;;;;;;;;;;;;;;;8.86;63.21;96467.97;30001;983;1885;-62
2022/05/31 02:58:13;;;;;;;;;;;;;;;8.88;62.73;96466.59;30001;983;1868;-63
2022/05/31 02:58:44;;;;;;;;;;;;;;;8.88;62.79;96461.19;30001;983;1877;-62
2022/05/31 02:59:16;;;;;;;;;;;;;;;8.90;62.67;96460.91;30001;983;1881;-62
2022/05/31 02:59:46;;;;;;;;;;;;;;;8.90;62.83;96467.13;30001;983;1886;-64
2022/05/31 03:00:18;;;;;;;;;;;;;;;8.92;62.40;96472.22;30001;983;1881;-63
2022/05/31 03:00:48;;;;;;;;;;;;;;;8.94;62.30;96467.34;30001;983;1886;-64
2022/05/31 03:01:25;;;;;;;;;;;;;;;8.92;62.18;96462.22;30001;983;1881;-63
2022/05/31 03:01:56;;;;;;;;;;;;;;;8.93;62.31;96463.03;30001;982;1886;-63